Alfred, New York
Current Conditions -  °F | °C
As of 9:56 AM on Sunday 21 Dec 2014 (Local Time) from KELZ Reporting Station
Overcast Overcast  
Wind Chill: 21°   Ceiling: 900
Heat Index: 26°   Visibility: 10mi
Dew Point: 22°   Wind: 5mph
Humidity: 84%   Direction: 270°W
Pressure: 30.25"   Gusts: NA
Location:  42.25°N, 77.79°W
Report Text: KELZ 211456Z AUTO 27004KT 10SM OVC009 M03/M06 A3025 RMK AO2 SLP275 T10331056 51010
Loading
Personal Weather Stations






























Interactive Weather Map New forecast layout! Learn more

10-Day Weather Forecast

Advertisements
Track Severe Weather on mobile